Terminal Aerodrome Forecast
Issued by NWS

Home | Current Version | Previous Version | Text Only | Print | Product List | Glossary On
Versions: 1 2 3 4 5 6 7 8 9 10 11 12 13 14 15 16 17 18 19
000
FTUS44 KEWX 282105 AAA
TAFSSF
TAF AMD
KSSF 282105Z 2821/2918 11012KT P6SM BKN040 BKN250
     FM290100 02008KT 5SM -TSRA BR OVC030CB
      TEMPO 2901/2904 VRB20G30KT 1 1/2SM TSRA BKN020CB
     FM290500 02010KT 4SM -SHRA BR OVC012
     FM291000 35008KT P6SM OVC020
     FM291700 08007KT P6SM BKN015 BKN120=

USA.gov is the U.S. government's official web portal to all federal, state and local government web resources and services.